sensor_id;sensor_type;location;lat;lon;timestamp;pressure;altitude;pressure_sealevel;temperature;humidity
6208;BME280;3137;51.550;7.060;2023-04-08T00:00:44;101682.69;;;4.37;95.37
6208;BME280;3137;51.550;7.060;2023-04-08T00:03:10;101680.19;;;4.31;95.28
6208;BME280;3137;51.550;7.060;2023-04-08T00:05:37;101681.13;;;4.30;95.58
6208;BME280;3137;51.550;7.060;2023-04-08T00:08:04;101680.31;;;4.28;96.18
6208;BME280;3137;51.550;7.060;2023-04-08T00:10:31;101681.38;;;4.22;95.88
6208;BME280;3137;51.550;7.060;2023-04-08T00:12:57;101677.88;;;4.20;95.98
6208;BME280;3137;51.550;7.060;2023-04-08T00:15:26;101680.56;;;4.18;95.91
6208;BME280;3137;51.550;7.060;2023-04-08T00:17:52;101682.25;;;4.21;96.01
6208;BME280;3137;51.550;7.060;2023-04-08T00:20:23;101680.63;;;4.17;96.11
6208;BME280;3137;51.550;7.060;2023-04-08T00:22:49;101680.81;;;4.11;95.50
6208;BME280;3137;51.550;7.060;2023-04-08T00:25:16;101685.41;;;4.04;95.57
6208;BME280;3137;51.550;7.060;2023-04-08T00:27:42;101691.75;;;4.00;96.05
6208;BME280;3137;51.550;7.060;2023-04-08T00:30:09;101684.81;;;3.94;95.84
6208;BME280;3137;51.550;7.060;2023-04-08T00:32:35;101694.66;;;3.91;96.04
6208;BME280;3137;51.550;7.060;2023-04-08T00:35:02;101697.56;;;3.81;95.33
6208;BME280;3137;51.550;7.060;2023-04-08T00:37:29;101698.38;;;3.83;96.62
6208;BME280;3137;51.550;7.060;2023-04-08T00:39:56;101695.75;;;3.82;96.07
6208;BME280;3137;51.550;7.060;2023-04-08T00:42:23;101694.84;;;3.83;96.09
6208;BME280;3137;51.550;7.060;2023-04-08T00:44:49;101696.56;;;3.86;96.29
6208;BME280;3137;51.550;7.060;2023-04-08T00:47:16;101693.94;;;3.84;96.01
6208;BME280;3137;51.550;7.060;2023-04-08T00:49:43;101700.13;;;3.83;96.28
6208;BME280;3137;51.550;7.060;2023-04-08T00:52:09;101698.44;;;3.80;95.71
6208;BME280;3137;51.550;7.060;2023-04-08T00:54:36;101695.00;;;3.78;95.96
6208;BME280;3137;51.550;7.060;2023-04-08T00:57:04;101704.81;;;3.73;95.84
6208;BME280;3137;51.550;7.060;2023-04-08T00:59:31;101696.09;;;3.70;96.13
6208;BME280;3137;51.550;7.060;2023-04-08T01:02:07;101701.50;;;3.67;96.15
6208;BME280;3137;51.550;7.060;2023-04-08T01:04:39;101701.56;;;3.63;95.47
6208;BME280;3137;51.550;7.060;2023-04-08T01:07:17;101704.31;;;3.60;95.89
6208;BME280;3137;51.550;7.060;2023-04-08T01:09:47;101699.97;;;3.58;95.85
6208;BME280;3137;51.550;7.060;2023-04-08T01:12:20;101711.53;;;3.54;95.94
6208;BME280;3137;51.550;7.060;2023-04-08T01:14:50;101706.22;;;3.55;96.39
6208;BME280;3137;51.550;7.060;2023-04-08T01:17:18;101700.94;;;3.54;95.96
6208;BME280;3137;51.550;7.060;2023-04-08T01:19:48;101706.31;;;3.52;95.63
6208;BME280;3137;51.550;7.060;2023-04-08T01:22:35;101702.91;;;3.47;95.93
6208;BME280;3137;51.550;7.060;2023-04-08T01:25:11;101711.75;;;3.46;96.24
6208;BME280;3137;51.550;7.060;2023-04-08T01:27:41;101704.97;;;3.36;95.59
6208;BME280;3137;51.550;7.060;2023-04-08T01:30:08;101713.88;;;3.32;96.12
6208;BME280;3137;51.550;7.060;2023-04-08T01:32:36;101724.69;;;3.24;96.28
6208;BME280;3137;51.550;7.060;2023-04-08T01:35:04;101712.41;;;3.20;96.34
6208;BME280;3137;51.550;7.060;2023-04-08T01:37:31;101714.19;;;3.21;96.66
6208;BME280;3137;51.550;7.060;2023-04-08T01:40:00;101711.41;;;3.26;96.26
6208;BME280;3137;51.550;7.060;2023-04-08T01:42:28;101720.34;;;3.22;96.08
6208;BME280;3137;51.550;7.060;2023-04-08T01:44:57;101718.63;;;3.19;96.72
6208;BME280;3137;51.550;7.060;2023-04-08T01:47:25;101718.78;;;3.13;96.51
6208;BME280;3137;51.550;7.060;2023-04-08T01:49:52;101717.03;;;3.12;96.55
6208;BME280;3137;51.550;7.060;2023-04-08T01:52:19;101717.94;;;3.11;96.22
6208;BME280;3137;51.550;7.060;2023-04-08T01:54:46;101723.22;;;3.11;96.37
6208;BME280;3137;51.550;7.060;2023-04-08T01:57:21;101717.91;;;3.12;96.80
6208;BME280;3137;51.550;7.060;2023-04-08T01:59:51;101717.94;;;3.11;96.57
6208;BME280;3137;51.550;7.060;2023-04-08T02:02:21;101702.13;;;3.09;96.50
6208;BME280;3137;51.550;7.060;2023-04-08T02:04:48;101709.25;;;3.06;96.43
6208;BME280;3137;51.550;7.060;2023-04-08T02:07:14;101710.94;;;3.08;96.62
6208;BME280;3137;51.550;7.060;2023-04-08T02:09:41;101714.44;;;3.09;95.69
6208;BME280;3137;51.550;7.060;2023-04-08T02:12:07;101708.34;;;3.07;96.10
6208;BME280;3137;51.550;7.060;2023-04-08T02:14:34;101714.50;;;3.07;96.11
6208;BME280;3137;51.550;7.060;2023-04-08T02:17:10;101710.19;;;3.03;96.58
6208;BME280;3137;51.550;7.060;2023-04-08T02:19:57;101715.47;;;3.05;96.25
6208;BME280;3137;51.550;7.060;2023-04-08T02:22:45;101717.28;;;3.03;96.24
6208;BME280;3137;51.550;7.060;2023-04-08T02:25:15;101712.81;;;3.05;96.42
6208;BME280;3137;51.550;7.060;2023-04-08T02:27:44;101718.97;;;3.05;96.70
6208;BME280;3137;51.550;7.060;2023-04-08T02:30:15;101727.69;;;3.09;96.65
6208;BME280;3137;51.550;7.060;2023-04-08T02:32:43;101721.50;;;3.10;96.82
6208;BME280;3137;51.550;7.060;2023-04-08T02:35:13;101726.81;;;3.08;96.87
6208;BME280;3137;51.550;7.060;2023-04-08T02:37:41;101732.09;;;3.10;96.52
6208;BME280;3137;51.550;7.060;2023-04-08T02:40:30;101737.38;;;3.10;96.42
6208;BME280;3137;51.550;7.060;2023-04-08T02:42:58;101734.72;;;3.11;96.28
6208;BME280;3137;51.550;7.060;2023-04-08T02:45:37;101733.88;;;3.09;96.44
6208;BME280;3137;51.550;7.060;2023-04-08T02:48:07;101730.34;;;3.09;96.82
6208;BME280;3137;51.550;7.060;2023-04-08T02:50:33;101731.25;;;3.08;96.43
6208;BME280;3137;51.550;7.060;2023-04-08T02:53:00;101723.28;;;3.09;96.81
6208;BME280;3137;51.550;7.060;2023-04-08T02:55:28;101731.13;;;3.12;96.08
6208;BME280;3137;51.550;7.060;2023-04-08T02:57:55;101734.53;;;3.17;96.61
6208;BME280;3137;51.550;7.060;2023-04-08T03:00:21;101733.69;;;3.17;96.82
6208;BME280;3137;51.550;7.060;2023-04-08T03:02:47;101731.03;;;3.17;96.77
6208;BME280;3137;51.550;7.060;2023-04-08T03:05:14;101738.09;;;3.16;96.43
6208;BME280;3137;51.550;7.060;2023-04-08T03:07:41;101737.19;;;3.17;97.00
6208;BME280;3137;51.550;7.060;2023-04-08T03:10:08;101727.44;;;3.19;96.60
6208;BME280;3137;51.550;7.060;2023-04-08T03:12:34;101734.34;;;3.25;96.67
6208;BME280;3137;51.550;7.060;2023-04-08T03:15:01;101738.69;;;3.28;96.67
6208;BME280;3137;51.550;7.060;2023-04-08T03:17:29;101729.03;;;3.27;97.17
6208;BME280;3137;51.550;7.060;2023-04-08T03:19:57;101742.91;;;3.35;97.25
6208;BME280;3137;51.550;7.060;2023-04-08T03:22:24;101738.63;;;3.31;97.31
6208;BME280;3137;51.550;7.060;2023-04-08T03:24:51;101748.28;;;3.33;96.71
6208;BME280;3137;51.550;7.060;2023-04-08T03:27:17;101746.50;;;3.34;96.60
6208;BME280;3137;51.550;7.060;2023-04-08T03:29:43;101743.88;;;3.32;97.30
6208;BME280;3137;51.550;7.060;2023-04-08T03:32:12;101750.09;;;3.31;97.50
6208;BME280;3137;51.550;7.060;2023-04-08T03:34:38;101750.13;;;3.30;97.55
6208;BME280;3137;51.550;7.060;2023-04-08T03:37:05;101750.84;;;3.36;96.83
6208;BME280;3137;51.550;7.060;2023-04-08T03:39:32;101751.63;;;3.40;97.67
6208;BME280;3137;51.550;7.060;2023-04-08T03:41:58;101757.81;;;3.40;97.73
6208;BME280;3137;51.550;7.060;2023-04-08T03:44:26;101757.75;;;3.42;97.40
6208;BME280;3137;51.550;7.060;2023-04-08T03:46:52;101751.59;;;3.41;96.76
6208;BME280;3137;51.550;7.060;2023-04-08T03:49:19;101755.06;;;3.44;97.29
6208;BME280;3137;51.550;7.060;2023-04-08T03:51:45;101753.41;;;3.39;97.37
6208;BME280;3137;51.550;7.060;2023-04-08T03:54:12;101754.13;;;3.46;97.52
6208;BME280;3137;51.550;7.060;2023-04-08T03:56:38;101750.50;;;3.49;97.03
6208;BME280;3137;51.550;7.060;2023-04-08T03:59:04;101757.56;;;3.50;97.00
6208;BME280;3137;51.550;7.060;2023-04-08T04:01:31;101760.13;;;3.53;97.92
6208;BME280;3137;51.550;7.060;2023-04-08T04:03:57;101749.53;;;3.53;96.99
6208;BME280;3137;51.550;7.060;2023-04-08T04:06:24;101754.84;;;3.53;97.17
6208;BME280;3137;51.550;7.060;2023-04-08T04:08:54;101748.59;;;3.55;97.53
6208;BME280;3137;51.550;7.060;2023-04-08T04:11:21;101754.84;;;3.53;97.12
6208;BME280;3137;51.550;7.060;2023-04-08T04:13:48;101751.22;;;3.57;97.81
6208;BME280;3137;51.550;7.060;2023-04-08T04:16:14;101759.22;;;3.54;97.00
6208;BME280;3137;51.550;7.060;2023-04-08T04:18:40;101766.28;;;3.53;97.82
6208;BME280;3137;51.550;7.060;2023-04-08T04:21:07;101777.88;;;3.49;97.54
6208;BME280;3137;51.550;7.060;2023-04-08T04:23:34;101772.50;;;3.52;97.60
6208;BME280;3137;51.550;7.060;2023-04-08T04:26:00;101767.16;;;3.54;97.14
6208;BME280;3137;51.550;7.060;2023-04-08T04:28:27;101776.16;;;3.47;97.59
6208;BME280;3137;51.550;7.060;2023-04-08T04:30:53;101772.75;;;3.43;97.06
6208;BME280;3137;51.550;7.060;2023-04-08T04:33:22;101771.03;;;3.40;97.37
6208;BME280;3137;51.550;7.060;2023-04-08T04:35:48;101771.16;;;3.36;97.61
6208;BME280;3137;51.550;7.060;2023-04-08T04:38:14;101767.63;;;3.35;97.74
6208;BME280;3137;51.550;7.060;2023-04-08T04:40:41;101772.00;;;3.36;97.25
6208;BME280;3137;51.550;7.060;2023-04-08T04:43:07;101771.19;;;3.34;97.89
6208;BME280;3137;51.550;7.060;2023-04-08T04:45:34;101777.41;;;3.33;97.32
6208;BME280;3137;51.550;7.060;2023-04-08T04:48:00;101788.94;;;3.31;97.64
6208;BME280;3137;51.550;7.060;2023-04-08T04:50:27;101777.41;;;3.32;97.57
6208;BME280;3137;51.550;7.060;2023-04-08T04:52:53;101791.75;;;3.23;97.62
6208;BME280;3137;51.550;7.060;2023-04-08T04:55:20;101789.16;;;3.22;96.96
6208;BME280;3137;51.550;7.060;2023-04-08T04:57:48;101795.28;;;3.24;97.00
6208;BME280;3137;51.550;7.060;2023-04-08T05:00:14;101783.88;;;3.20;97.21
6208;BME280;3137;51.550;7.060;2023-04-08T05:02:41;101793.59;;;3.19;97.81
6208;BME280;3137;51.550;7.060;2023-04-08T05:05:08;101797.22;;;3.15;97.47
6208;BME280;3137;51.550;7.060;2023-04-08T05:07:35;101798.94;;;3.18;97.28
6208;BME280;3137;51.550;7.060;2023-04-08T05:10:02;101796.22;;;3.21;97.77
6208;BME280;3137;51.550;7.060;2023-04-08T05:12:29;101798.78;;;3.26;97.13
6208;BME280;3137;51.550;7.060;2023-04-08T05:14:59;101809.34;;;3.26;97.92
6208;BME280;3137;51.550;7.060;2023-04-08T05:17:25;101816.56;;;3.19;97.17
6208;BME280;3137;51.550;7.060;2023-04-08T05:19:52;101808.53;;;3.22;97.17
6208;BME280;3137;51.550;7.060;2023-04-08T05:22:23;101812.06;;;3.23;97.04
6208;BME280;3137;51.550;7.060;2023-04-08T05:24:50;101816.47;;;3.22;96.78
6208;BME280;3137;51.550;7.060;2023-04-08T05:27:16;101812.91;;;3.23;97.71
6208;BME280;3137;51.550;7.060;2023-04-08T05:29:43;101815.66;;;3.20;97.69
6208;BME280;3137;51.550;7.060;2023-04-08T05:32:09;101813.00;;;3.20;97.59
6208;BME280;3137;51.550;7.060;2023-04-08T05:34:35;101817.34;;;3.23;97.72
6208;BME280;3137;51.550;7.060;2023-04-08T05:37:02;101819.03;;;3.25;96.97
6208;BME280;3137;51.550;7.060;2023-04-08T05:39:28;101821.78;;;3.22;97.35
6208;BME280;3137;51.550;7.060;2023-04-08T05:41:54;101818.22;;;3.23;96.68
6208;BME280;3137;51.550;7.060;2023-04-08T05:44:21;101821.69;;;3.25;97.05
6208;BME280;3137;51.550;7.060;2023-04-08T05:46:47;101826.94;;;3.28;97.72
6208;BME280;3137;51.550;7.060;2023-04-08T05:49:14;101821.56;;;3.31;97.59
6208;BME280;3137;51.550;7.060;2023-04-08T05:51:42;101827.63;;;3.35;97.28
6208;BME280;3137;51.550;7.060;2023-04-08T05:54:08;101830.25;;;3.38;97.40
6208;BME280;3137;51.550;7.060;2023-04-08T05:56:35;101828.44;;;3.40;97.03
6208;BME280;3137;51.550;7.060;2023-04-08T05:59:01;101832.00;;;3.37;96.81
6208;BME280;3137;51.550;7.060;2023-04-08T06:01:28;101847.75;;;3.44;96.83
6208;BME280;3137;51.550;7.060;2023-04-08T06:03:54;101854.75;;;3.46;97.41
6208;BME280;3137;51.550;7.060;2023-04-08T06:06:22;101852.81;;;3.53;97.10
6208;BME280;3137;51.550;7.060;2023-04-08T06:08:48;101853.56;;;3.58;97.60
6208;BME280;3137;51.550;7.060;2023-04-08T06:11:15;101856.94;;;3.65;97.69
6208;BME280;3137;51.550;7.060;2023-04-08T06:13:42;101861.38;;;3.64;97.33
6208;BME280;3137;51.550;7.060;2023-04-08T06:16:12;101873.81;;;3.60;97.00
6208;BME280;3137;51.550;7.060;2023-04-08T06:18:39;101868.53;;;3.60;97.29
6208;BME280;3137;51.550;7.060;2023-04-08T06:21:05;101871.13;;;3.62;96.85
6208;BME280;3137;51.550;7.060;2023-04-08T06:23:32;101866.44;;;3.73;97.18
6208;BME280;3137;51.550;7.060;2023-04-08T06:25:58;101867.22;;;3.77;97.36
6208;BME280;3137;51.550;7.060;2023-04-08T06:28:24;101864.47;;;3.81;97.49
6208;BME280;3137;51.550;7.060;2023-04-08T06:30:51;101860.84;;;3.86;97.30
6208;BME280;3137;51.550;7.060;2023-04-08T06:33:17;101856.28;;;3.91;97.17
6208;BME280;3137;51.550;7.060;2023-04-08T06:35:44;101859.72;;;3.94;96.94
6208;BME280;3137;51.550;7.060;2023-04-08T06:38:10;101867.75;;;3.91;96.80
6208;BME280;3137;51.550;7.060;2023-04-08T06:40:38;101880.19;;;3.88;96.93
6208;BME280;3137;51.550;7.060;2023-04-08T06:43:05;101876.53;;;3.93;97.07
6208;BME280;3137;51.550;7.060;2023-04-08T06:45:37;101881.66;;;3.99;96.53
6208;BME280;3137;51.550;7.060;2023-04-08T06:48:03;101887.88;;;4.00;96.28
6208;BME280;3137;51.550;7.060;2023-04-08T06:50:30;101888.50;;;4.10;95.91
6208;BME280;3137;51.550;7.060;2023-04-08T06:52:56;101882.38;;;4.06;95.28
6208;BME280;3137;51.550;7.060;2023-04-08T06:55:22;101890.09;;;4.15;95.15
6208;BME280;3137;51.550;7.060;2023-04-08T06:57:49;101896.16;;;4.20;95.90
6208;BME280;3137;51.550;7.060;2023-04-08T07:00:15;101900.34;;;4.29;95.87
6208;BME280;3137;51.550;7.060;2023-04-08T07:02:42;101904.50;;;4.39;95.47
6208;BME280;3137;51.550;7.060;2023-04-08T07:05:09;101896.31;;;4.47;95.85
6208;BME280;3137;51.550;7.060;2023-04-08T07:07:35;101901.16;;;4.64;95.55
6208;BME280;3137;51.550;7.060;2023-04-08T07:10:01;101907.75;;;4.80;95.60
6208;BME280;3137;51.550;7.060;2023-04-08T07:12:28;101911.25;;;4.82;95.63
6208;BME280;3137;51.550;7.060;2023-04-08T07:14:54;101919.97;;;4.86;95.79
6208;BME280;3137;51.550;7.060;2023-04-08T07:17:21;101915.69;;;4.82;94.88
6208;BME280;3137;51.550;7.060;2023-04-08T07:19:47;101920.44;;;4.71;94.10
6208;BME280;3137;51.550;7.060;2023-04-08T07:22:14;101915.50;;;4.88;94.36
6208;BME280;3137;51.550;7.060;2023-04-08T07:24:41;101913.88;;;4.84;94.19
6208;BME280;3137;51.550;7.060;2023-04-08T07:27:10;101918.16;;;4.88;94.22
6208;BME280;3137;51.550;7.060;2023-04-08T07:29:37;101923.16;;;4.99;94.28
6208;BME280;3137;51.550;7.060;2023-04-08T07:32:03;101930.41;;;4.94;94.04
6208;BME280;3137;51.550;7.060;2023-04-08T07:34:29;101924.00;;;5.01;94.44
6208;BME280;3137;51.550;7.060;2023-04-08T07:36:56;101924.34;;;5.18;93.97
6208;BME280;3137;51.550;7.060;2023-04-08T07:39:22;101921.47;;;5.26;93.76
6208;BME280;3137;51.550;7.060;2023-04-08T07:41:49;101915.84;;;5.37;93.72
6208;BME280;3137;51.550;7.060;2023-04-08T07:44:15;101922.63;;;5.45;93.69
6208;BME280;3137;51.550;7.060;2023-04-08T07:46:42;101919.81;;;5.51;93.31
6208;BME280;3137;51.550;7.060;2023-04-08T07:49:10;101918.84;;;5.54;92.67
6208;BME280;3137;51.550;7.060;2023-04-08T07:51:37;101931.03;;;5.60;92.20
6208;BME280;3137;51.550;7.060;2023-04-08T07:54:04;101932.81;;;5.61;91.89
6208;BME280;3137;51.550;7.060;2023-04-08T07:56:31;101937.03;;;5.66;91.06
6208;BME280;3137;51.550;7.060;2023-04-08T07:58:57;101948.16;;;5.51;90.29
6208;BME280;3137;51.550;7.060;2023-04-08T08:01:23;101954.97;;;5.60;90.77
6208;BME280;3137;51.550;7.060;2023-04-08T08:03:50;101959.09;;;5.70;90.46
6208;BME280;3137;51.550;7.060;2023-04-08T08:06:18;101964.44;;;5.68;89.87
6208;BME280;3137;51.550;7.060;2023-04-08T08:08:44;101962.06;;;5.87;90.23
6208;BME280;3137;51.550;7.060;2023-04-08T08:11:11;101965.28;;;5.99;89.59
6208;BME280;3137;51.550;7.060;2023-04-08T08:13:37;101956.19;;;6.06;89.42
6208;BME280;3137;51.550;7.060;2023-04-08T08:16:04;101961.25;;;6.13;88.83
6208;BME280;3137;51.550;7.060;2023-04-08T08:18:34;101966.31;;;6.21;88.22
6208;BME280;3137;51.550;7.060;2023-04-08T08:21:01;101964.38;;;6.26;87.49
6208;BME280;3137;51.550;7.060;2023-04-08T08:23:28;101968.81;;;6.26;86.06
6208;BME280;3137;51.550;7.060;2023-04-08T08:26:05;101973.97;;;6.30;85.94
6208;BME280;3137;51.550;7.060;2023-04-08T08:28:32;101981.56;;;6.16;85.95
6208;BME280;3137;51.550;7.060;2023-04-08T08:30:58;101980.31;;;6.26;85.09
6208;BME280;3137;51.550;7.060;2023-04-08T08:33:25;101982.88;;;6.29;84.32
6208;BME280;3137;51.550;7.060;2023-04-08T08:35:52;101979.31;;;6.30;84.31
6208;BME280;3137;51.550;7.060;2023-04-08T08:38:18;101984.41;;;6.36;84.08
6208;BME280;3137;51.550;7.060;2023-04-08T08:40:45;101980.75;;;6.39;83.92
6208;BME280;3137;51.550;7.060;2023-04-08T08:43:11;101986.91;;;6.41;83.65
6208;BME280;3137;51.550;7.060;2023-04-08T08:45:39;101990.09;;;6.52;84.09
6208;BME280;3137;51.550;7.060;2023-04-08T08:48:06;101989.06;;;6.56;85.84
6208;BME280;3137;51.550;7.060;2023-04-08T08:50:34;101990.34;;;6.70;84.39
6208;BME280;3137;51.550;7.060;2023-04-08T08:53:01;101992.00;;;6.74;83.92
6208;BME280;3137;51.550;7.060;2023-04-08T08:55:32;101990.97;;;6.78;83.31
6208;BME280;3137;51.550;7.060;2023-04-08T08:58:19;101990.53;;;6.90;82.99
6208;BME280;3137;51.550;7.060;2023-04-08T09:00:45;101992.16;;;6.94;83.92
6208;BME280;3137;51.550;7.060;2023-04-08T09:03:25;101993.41;;;7.09;82.14
6208;BME280;3137;51.550;7.060;2023-04-08T09:06:04;102000.16;;;7.18;82.84
6208;BME280;3137;51.550;7.060;2023-04-08T09:08:32;102011.47;;;7.24;83.43
6208;BME280;3137;51.550;7.060;2023-04-08T09:11:15;102010.31;;;7.32;83.44
6208;BME280;3137;51.550;7.060;2023-04-08T09:13:43;102005.75;;;7.35;83.10
6208;BME280;3137;51.550;7.060;2023-04-08T09:16:12;102007.59;;;7.57;83.62
6208;BME280;3137;51.550;7.060;2023-04-08T09:18:40;102006.13;;;7.72;82.63
6208;BME280;3137;51.550;7.060;2023-04-08T09:21:10;101998.56;;;7.83;82.38
6208;BME280;3137;51.550;7.060;2023-04-08T09:26:09;101996.63;;;8.08;81.11
6208;BME280;3137;51.550;7.060;2023-04-08T09:28:36;102007.00;;;7.94;78.92
6208;BME280;3137;51.550;7.060;2023-04-08T09:31:18;102007.66;;;7.77;78.63
6208;BME280;3137;51.550;7.060;2023-04-08T09:33:47;102006.59;;;7.83;80.25
6208;BME280;3137;51.550;7.060;2023-04-08T09:36:15;102006.69;;;7.80;80.42
6208;BME280;3137;51.550;7.060;2023-04-08T09:38:42;102009.34;;;7.80;79.41
6208;BME280;3137;51.550;7.060;2023-04-08T09:41:12;102015.66;;;7.77;78.53
6208;BME280;3137;51.550;7.060;2023-04-08T09:43:44;102013.13;;;7.74;78.31
6208;BME280;3137;51.550;7.060;2023-04-08T09:46:15;102006.84;;;7.75;77.45
6208;BME280;3137;51.550;7.060;2023-04-08T09:49:09;102010.91;;;7.85;76.69
6208;BME280;3137;51.550;7.060;2023-04-08T09:51:52;102019.84;;;7.84;77.39
6208;BME280;3137;51.550;7.060;2023-04-08T09:54:20;102016.78;;;7.72;78.24
6208;BME280;3137;51.550;7.060;2023-04-08T09:56:53;102014.75;;;7.78;78.01
6208;BME280;3137;51.550;7.060;2023-04-08T09:59:24;102014.97;;;7.72;77.83
6208;BME280;3137;51.550;7.060;2023-04-08T10:01:54;102012.19;;;7.75;78.11
6208;BME280;3137;51.550;7.060;2023-04-08T10:04:22;102005.25;;;7.71;77.46
6208;BME280;3137;51.550;7.060;2023-04-08T10:06:53;102010.50;;;7.73;77.78
6208;BME280;3137;51.550;7.060;2023-04-08T10:09:21;102006.97;;;7.72;78.05
6208;BME280;3137;51.550;7.060;2023-04-08T10:11:48;102011.47;;;7.72;78.70
6208;BME280;3137;51.550;7.060;2023-04-08T10:14:15;102008.47;;;7.57;78.15
6208;BME280;3137;51.550;7.060;2023-04-08T10:16:41;102017.16;;;7.62;77.53
6208;BME280;3137;51.550;7.060;2023-04-08T10:19:36;102008.47;;;7.57;79.33
6208;BME280;3137;51.550;7.060;2023-04-08T10:22:45;102023.06;;;7.47;79.58
6208;BME280;3137;51.550;7.060;2023-04-08T10:27:43;102020.09;;;7.55;79.01
6208;BME280;3137;51.550;7.060;2023-04-08T10:30:43;102018.19;;;7.58;79.85
6208;BME280;3137;51.550;7.060;2023-04-08T10:33:18;102021.66;;;7.60;80.62
6208;BME280;3137;51.550;7.060;2023-04-08T10:35:47;102016.03;;;7.68;80.27
6208;BME280;3137;51.550;7.060;2023-04-08T10:38:15;102015.63;;;7.79;80.07
6208;BME280;3137;51.550;7.060;2023-04-08T10:40:43;102017.28;;;7.59;79.56
6208;BME280;3137;51.550;7.060;2023-04-08T10:43:11;102008.91;;;7.69;79.64
6208;BME280;3137;51.550;7.060;2023-04-08T10:45:38;102014.44;;;7.86;79.09
6208;BME280;3137;51.550;7.060;2023-04-08T10:48:19;102011.66;;;7.89;80.12
6208;BME280;3137;51.550;7.060;2023-04-08T10:51:05;102008.78;;;8.16;79.86
6208;BME280;3137;51.550;7.060;2023-04-08T10:53:38;102015.28;;;8.30;80.16
6208;BME280;3137;51.550;7.060;2023-04-08T10:56:09;102006.88;;;8.41;79.47
6208;BME280;3137;51.550;7.060;2023-04-08T10:58:51;102011.91;;;8.49;79.94
6208;BME280;3137;51.550;7.060;2023-04-08T11:01:18;102014.38;;;8.54;79.92
6208;BME280;3137;51.550;7.060;2023-04-08T11:03:45;102011.44;;;8.60;78.06
6208;BME280;3137;51.550;7.060;2023-04-08T11:06:11;102004.34;;;8.59;76.48
6208;BME280;3137;51.550;7.060;2023-04-08T11:08:38;101996.81;;;8.68;77.40
6208;BME280;3137;51.550;7.060;2023-04-08T11:11:05;102001.25;;;8.69;76.45
6208;BME280;3137;51.550;7.060;2023-04-08T11:13:39;101999.16;;;8.76;77.21
6208;BME280;3137;51.550;7.060;2023-04-08T11:16:17;101999.84;;;8.81;77.41
6208;BME280;3137;51.550;7.060;2023-04-08T11:18:44;102004.44;;;8.98;76.62
6208;BME280;3137;51.550;7.060;2023-04-08T11:21:11;102001.00;;;9.15;76.97
6208;BME280;3137;51.550;7.060;2023-04-08T11:23:37;102004.94;;;9.27;77.31
6208;BME280;3137;51.550;7.060;2023-04-08T11:26:04;102004.22;;;9.42;77.89
6208;BME280;3137;51.550;7.060;2023-04-08T11:28:31;102002.63;;;9.57;77.21
6208;BME280;3137;51.550;7.060;2023-04-08T11:30:59;101998.66;;;9.66;77.65
6208;BME280;3137;51.550;7.060;2023-04-08T11:33:25;102003.63;;;9.73;76.26
6208;BME280;3137;51.550;7.060;2023-04-08T11:35:55;102003.84;;;9.88;76.05
6208;BME280;3137;51.550;7.060;2023-04-08T11:38:23;102003.34;;;9.98;75.41
6208;BME280;3137;51.550;7.060;2023-04-08T11:40:54;101999.44;;;9.87;73.56
6208;BME280;3137;51.550;7.060;2023-04-08T11:43:20;102002.88;;;9.89;74.04
6208;BME280;3137;51.550;7.060;2023-04-08T11:45:47;102009.03;;;9.91;73.95
6208;BME280;3137;51.550;7.060;2023-04-08T11:48:15;101998.84;;;9.80;74.16
6208;BME280;3137;51.550;7.060;2023-04-08T11:50:42;101999.72;;;9.80;74.08
6208;BME280;3137;51.550;7.060;2023-04-08T11:53:27;101994.13;;;10.04;73.60
6208;BME280;3137;51.550;7.060;2023-04-08T11:55:54;101999.81;;;10.15;73.53
6208;BME280;3137;51.550;7.060;2023-04-08T11:58:21;102009.06;;;10.27;71.56
6208;BME280;3137;51.550;7.060;2023-04-08T12:00:48;102005.50;;;10.27;71.05
6208;BME280;3137;51.550;7.060;2023-04-08T12:03:14;102009.06;;;10.27;71.51
6208;BME280;3137;51.550;7.060;2023-04-08T12:05:41;102010.84;;;10.27;73.34
6208;BME280;3137;51.550;7.060;2023-04-08T12:08:07;102011.84;;;10.43;74.11
6208;BME280;3137;51.550;7.060;2023-04-08T12:10:34;102016.91;;;10.49;73.69
6208;BME280;3137;51.550;7.060;2023-04-08T12:13:00;102012.41;;;10.50;73.68
6208;BME280;3137;51.550;7.060;2023-04-08T12:15:27;102009.72;;;10.50;74.28
6208;BME280;3137;51.550;7.060;2023-04-08T12:17:53;102015.25;;;10.47;74.09
6208;BME280;3137;51.550;7.060;2023-04-08T12:20:19;102017.84;;;10.48;73.99
6208;BME280;3137;51.550;7.060;2023-04-08T12:22:46;102015.56;;;10.40;73.88
6208;BME280;3137;51.550;7.060;2023-04-08T12:25:12;102020.84;;;10.42;72.77
6208;BME280;3137;51.550;7.060;2023-04-08T12:27:39;102023.19;;;10.48;72.61
6208;BME280;3137;51.550;7.060;2023-04-08T12:30:06;102022.09;;;10.52;73.49
6208;BME280;3137;51.550;7.060;2023-04-08T12:32:32;102015.88;;;10.52;72.58
6208;BME280;3137;51.550;7.060;2023-04-08T12:34:59;102017.78;;;10.50;71.59
6208;BME280;3137;51.550;7.060;2023-04-08T12:37:26;102020.59;;;10.47;71.42
6208;BME280;3137;51.550;7.060;2023-04-08T12:39:53;102015.03;;;10.51;72.58
6208;BME280;3137;51.550;7.060;2023-04-08T12:42:19;102015.56;;;10.58;72.60
6208;BME280;3137;51.550;7.060;2023-04-08T12:44:45;102015.88;;;10.52;72.58
6208;BME280;3137;51.550;7.060;2023-04-08T12:47:12;102013.28;;;10.50;72.19
6208;BME280;3137;51.550;7.060;2023-04-08T12:49:38;102016.91;;;10.49;71.92
6208;BME280;3137;51.550;7.060;2023-04-08T12:52:07;102011.00;;;10.42;71.94
6208;BME280;3137;51.550;7.060;2023-04-08T12:54:34;102010.59;;;10.50;72.54
6208;BME280;3137;51.550;7.060;2023-04-08T12:57:00;101994.38;;;10.71;73.56
6208;BME280;3137;51.550;7.060;2023-04-08T12:59:28;101990.56;;;10.92;72.83
6208;BME280;3137;51.550;7.060;2023-04-08T13:01:54;102005.75;;;11.09;72.30
6208;BME280;3137;51.550;7.060;2023-04-08T13:04:21;101990.59;;;11.08;72.69
6208;BME280;3137;51.550;7.060;2023-04-08T13:06:47;101997.28;;;11.17;72.58
6208;BME280;3137;51.550;7.060;2023-04-08T13:09:13;102000.03;;;11.15;71.19
6208;BME280;3137;51.550;7.060;2023-04-08T13:11:40;102004.72;;;11.12;70.45
6208;BME280;3137;51.550;7.060;2023-04-08T13:14:06;101999.78;;;11.04;71.16
6208;BME280;3137;51.550;7.060;2023-04-08T13:16:33;101998.75;;;11.06;70.91
6208;BME280;3137;51.550;7.060;2023-04-08T13:18:59;101995.81;;;11.11;71.93
6208;BME280;3137;51.550;7.060;2023-04-08T13:21:26;101996.06;;;11.06;70.79
6208;BME280;3137;51.550;7.060;2023-04-08T13:23:53;101998.09;;;11.19;72.51
6208;BME280;3137;51.550;7.060;2023-04-08T13:26:19;101996.25;;;11.19;71.73
6208;BME280;3137;51.550;7.060;2023-04-08T13:28:45;102002.06;;;11.27;71.38
6208;BME280;3137;51.550;7.060;2023-04-08T13:31:22;101994.28;;;11.23;71.00